Terminal Aerodrome Forecast
Issued by NWS San Angelo, TX

Home | Current Version | Previous Version | Text Only | Print | Product List | Glossary On
Versions: 1 2 3 4 5 6 7 8 9 10 11 12 13 14 15 16 17 18 19 20
000
FTUS44 KSJT 301746
TAFSJT
TAF
KSJT 301746Z 3018/3118 17009KT P6SM BKN025
     FM301900 18010KT P6SM BKN035
     FM302200 16010KT P6SM VCTS BKN050CB
     FM310400 18007KT P6SM SCT050 BKN250
     FM310900 15006KT P6SM BKN015
     FM311700 17010KT P6SM SCT025=

USA.gov is the U.S. government's official web portal to all federal, state and local government web resources and services.